This is the latest recevied weather packets stored in our database for station/object EA1IRT-1. If no packets are shown the sender has not sent any weather packets the latest 10 day(s).
| Time | Temp. | Humidity | Pressure | Rain* | Wind** | Luminosity | Snow |
|---|---|---|---|---|---|---|---|
| 1777560089 | 17.78° C | 74% | 1017.7 hPa | - | - | - | - |
| 1777559189 | 18.33° C | 75% | 1017.5 hPa | - | - | - | - |
| 1777558288 | 17.78° C | 75% | 1017.5 hPa | - | - | - | - |
| 1777557395 | 18.33° C | 77% | 1017.4 hPa | - | - | - | - |
| 1777556488 | 18.33° C | 74% | 1017.2 hPa | - | - | - | - |
| 1777555588 | 18.33° C | 75% | 1017.2 hPa | - | - | - | - |
| 1777554688 | 18.33° C | 76% | 1017 hPa | - | - | - | - |
| 1777553788 | 18.89° C | 79% | 1016.8 hPa | - | - | - | - |
| 1777551995 | 20° C | 74% | 1016.7 hPa | - | - | - | - |
| 1777551091 | 18.89° C | 79% | 1016.7 hPa | - | - | - | - |
| 1777550188 | 20° C | 79% | 1016.5 hPa | - | - | - | - |
| 1777549288 | 20° C | 73% | 1016.6 hPa | - | - | - | - |
| 1777548388 | 18.89° C | 81% | 1016.6 hPa | - | - | - | - |
| 1777547487 | 17.78° C | 88% | 1016.6 hPa | - | - | - | - |
| 1777546587 | 18.33° C | 80% | 1016.5 hPa | - | - | - | - |
| 1777545687 | 20° C | 76% | 1016.2 hPa | - | - | - | - |
| 1777544787 | 17.78° C | 90% | 1016.1 hPa | - | - | - | - |
| 1777543894 | 17.22° C | 94% | 1016 hPa | - | - | - | - |
| 1777542987 | 17.22° C | 93% | 1015.8 hPa | - | - | - | - |
| 1777542087 | 17.22° C | 94% | 1015.6 hPa | - | - | - | - |
| 1777541187 | 17.78° C | 87% | 1015.3 hPa | - | - | - | - |
| 1777540287 | 18.33° C | 86% | 1015.2 hPa | - | - | - | - |
| 1777539387 | 17.78° C | 94% | 1015.1 hPa | - | - | - | - |
| 1777538487 | 181.67° C | 100% | - | - | - | - | - |
| 1777537589 | 16.67° C | 100% | 1015 hPa | - | - | - | - |
* Rain since midnight (hover to see other rain measurements)
** Current wind speed in m/s (hover to see current wind gust speed)